Rapatee, Illinois
Current Conditions -  °F | °C
As of 5:15 AM on Friday 24 Oct 2014 (Local Time) from KGBG Reporting Station
Moderate Fog Moderate Fog  
Wind Chill: 43°   Ceiling: 300
Heat Index: 43°   Visibility: 0mi
Dew Point: 43°   Wind: 0mph
Humidity: 99%   Direction: NA
Pressure: 30.06"   Gusts: NA
Location:  40.6713°N, 90.2556°W
Report Text: KGBG 241015Z AUTO 00000KT M1/4SM FG OVC003 06/06 A3006 RMK AO2 T00620060
Loading
Personal Weather Stations






























Interactive Weather Map
Tropical Storm Tracking
New forecast layout! Learn more

10-Day Weather Forecast

Advertisements
Track Severe Weather on mobile